Time;durP1;ratioP1;P1;durP2;ratioP2;P2;SDS_P1;SDS_P2;PMS_P1;PMS_P2;Temp;Humidity;BMP_temperature;BMP_pressure;BME280_temperature;BME280_humidity;BME280_pressure;Samples;Min_cycle;Max_cycle;Signal;HPM_P1;HPM_P2
2022/01/18 00:01:27;;;;;;;;;;;;;;;4.16;100.00;102503.06;5018899;28;19924;-73
2022/01/18 00:04:11;;;;;;;;;;;;;;;4.19;100.00;102499.44;5018572;28;20435;-73
2022/01/18 00:06:55;;;;;;;;;;;;;;;4.24;100.00;102505.44;5033694;28;20018;-74
2022/01/18 00:09:39;;;;;;;;;;;;;;;4.23;100.00;102511.63;5018810;28;19924;-73
2022/01/18 00:18:14;;;;;;;;;;;;;;;4.22;100.00;102520.47;5018952;28;19924;-73
2022/01/18 00:21:14;;;;;;;;;;;;;;;4.19;100.00;102520.56;5019324;28;20016;-73
2022/01/18 00:23:59;;;;;;;;;;;;;;;4.22;100.00;102523.09;5020599;28;19928;-73
2022/01/18 00:26:43;;;;;;;;;;;;;;;4.24;100.00;102526.56;5018484;28;19996;-73
2022/01/18 00:29:28;;;;;;;;;;;;;;;4.20;100.00;102522.31;5018508;28;20448;-73
2022/01/18 00:32:24;;;;;;;;;;;;;;;4.26;100.00;102533.53;5018634;28;20031;-73
2022/01/18 00:35:08;;;;;;;;;;;;;;;4.21;100.00;102530.19;5019910;28;20016;-73
2022/01/18 00:37:55;;;;;;;;;;;;;;;4.22;100.00;102531.03;5033278;28;19923;-73
2022/01/18 00:40:39;;;;;;;;;;;;;;;4.19;100.00;102525.84;5018579;28;19988;-73
2022/01/18 00:43:23;;;;;;;;;;;;;;;4.19;100.00;102528.50;5018162;28;19928;-73
2022/01/18 00:46:07;;;;;;;;;;;;;;;4.20;100.00;102532.84;5018099;28;20396;-73
2022/01/18 00:48:53;;;;;;;;;;;;;;;4.18;100.00;102535.53;5018028;28;19928;-73
2022/01/18 00:51:39;;;;;;;;;;;;;;;4.15;100.00;102540.09;5018093;28;19928;-72
2022/01/18 00:54:32;;;;;;;;;;;;;;;4.15;100.00;102540.09;5018756;28;19924;-73
2022/01/18 00:57:16;;;;;;;;;;;;;;;4.16;100.00;102536.53;5018212;28;19924;-73
2022/01/18 01:00:00;;;;;;;;;;;;;;;4.20;100.00;102538.13;5018421;28;19976;-73
2022/01/18 01:02:43;;;;;;;;;;;;;;;4.22;100.00;102533.66;5017952;28;20035;-73
2022/01/18 01:05:27;;;;;;;;;;;;;;;4.20;100.00;102533.75;5017873;28;20411;-73
2022/01/18 01:08:11;;;;;;;;;;;;;;;4.25;100.00;102537.06;5017725;28;19928;-73
2022/01/18 01:10:55;;;;;;;;;;;;;;;4.21;100.00;102537.22;5018102;28;19924;-73
2022/01/18 01:13:43;;;;;;;;;;;;;;;4.20;100.00;102543.41;5018038;28;19984;-73
2022/01/18 01:16:47;;;;;;;;;;;;;;;4.21;100.00;102540.75;5018089;28;20514;-73
2022/01/18 01:32:19;;;;;;;;;;;;;;;4.24;100.00;102534.47;5032646;28;19956;-73
2022/01/18 01:46:54;;;;;;;;;;;;;;;4.34;100.00;102536.78;5019272;28;19944;-73
2022/01/18 01:49:38;;;;;;;;;;;;;;;4.32;100.00;102543.00;5017507;28;19928;-73
2022/01/18 01:52:22;;;;;;;;;;;;;;;4.26;100.00;102541.44;5017547;28;19924;-73
2022/01/18 01:55:06;;;;;;;;;;;;;;;4.37;100.00;102541.09;5032404;28;19970;-73
2022/01/18 01:57:50;;;;;;;;;;;;;;;4.37;100.00;102544.59;5017378;28;20392;-73
2022/01/18 02:00:35;;;;;;;;;;;;;;;4.35;100.00;102535.88;5017534;28;19925;-73
2022/01/18 02:03:18;;;;;;;;;;;;;;;4.31;100.00;102536.00;5020376;28;19924;-73
2022/01/18 02:06:02;;;;;;;;;;;;;;;4.35;100.00;102538.50;5022304;28;19967;-73
2022/01/18 02:08:46;;;;;;;;;;;;;;;4.32;100.00;102528.06;5021053;28;19951;-73
2022/01/18 02:11:30;;;;;;;;;;;;;;;4.35;100.00;102532.38;5020768;28;20031;-73
2022/01/18 02:14:19;;;;;;;;;;;;;;;4.30;100.00;102527.25;5021179;28;19924;-73
2022/01/18 02:23:09;;;;;;;;;;;;;;;4.31;100.00;102525.44;5023537;28;19927;-73
2022/01/18 02:25:53;;;;;;;;;;;;;;;4.31;100.00;102525.44;5020406;28;20297;-73
2022/01/18 02:28:37;;;;;;;;;;;;;;;4.39;100.00;102523.41;5020636;28;19928;-73
2022/01/18 02:31:21;;;;;;;;;;;;;;;4.40;100.00;102530.44;5035642;28;20419;-73
2022/01/18 02:34:07;;;;;;;;;;;;;;;4.41;100.00;102534.78;5020687;28;20028;-73
2022/01/18 02:36:53;;;;;;;;;;;;;;;4.43;100.00;102530.31;5020437;28;19924;-73
2022/01/18 02:39:36;;;;;;;;;;;;;;;4.41;100.00;102532.16;5020507;28;20280;-73
2022/01/18 02:42:23;;;;;;;;;;;;;;;4.47;100.00;102526.69;5035446;28;19967;-73
2022/01/18 02:45:07;;;;;;;;;;;;;;;4.42;100.00;102523.31;5020405;28;20380;-73
2022/01/18 02:47:51;;;;;;;;;;;;;;;4.41;100.00;102517.19;5019845;28;20292;-73
2022/01/18 02:50:35;;;;;;;;;;;;;;;4.51;100.00;102517.72;5020025;28;19925;-73
2022/01/18 02:53:19;;;;;;;;;;;;;;;4.43;100.00;102519.75;5035485;28;19984;-73
2022/01/18 02:56:03;;;;;;;;;;;;;;;4.47;100.00;102518.75;5034888;28;20336;-73
2022/01/18 02:58:46;;;;;;;;;;;;;;;4.41;100.00;102516.31;5035188;28;20284;-73
2022/01/18 03:04:37;;;;;;;;;;;;;;;4.50;100.00;102523.94;5022480;28;19932;-73
2022/01/18 03:07:20;;;;;;;;;;;;;;;4.56;100.00;102526.38;5019596;28;19971;-73
2022/01/18 03:10:05;;;;;;;;;;;;;;;4.51;100.00;102533.56;5035191;28;19924;-73
2022/01/18 03:12:48;;;;;;;;;;;;;;;4.43;100.00;102530.31;5034385;28;20007;-73
2022/01/18 03:15:33;;;;;;;;;;;;;;;4.50;100.00;102534.50;5019497;28;19963;-73
2022/01/18 03:18:17;;;;;;;;;;;;;;;4.45;100.00;102533.81;5019848;28;20391;-73
2022/01/18 03:21:01;;;;;;;;;;;;;;;4.55;100.00;102528.13;5019931;28;20078;-73
2022/01/18 03:23:51;;;;;;;;;;;;;;;4.51;100.00;102523.88;5034418;28;19925;-73
2022/01/18 03:28:03;;;;;;;;;;;;;;;4.57;100.00;102525.47;5019251;28;19983;-73
2022/01/18 03:29:39;;;;;;;;;;;;;;;4.59;100.00;102528.91;5022479;28;19936;-73
2022/01/18 03:32:23;;;;;;;;;;;;;;;4.48;100.00;102521.31;5019630;28;19968;-73
2022/01/18 03:35:08;;;;;;;;;;;;;;;4.56;100.00;102521.09;5034422;28;19967;-73
2022/01/18 03:37:52;;;;;;;;;;;;;;;4.55;100.00;102521.97;5019043;28;19967;-73
2022/01/18 03:40:35;;;;;;;;;;;;;;;4.57;100.00;102518.38;5019084;28;19924;-73
2022/01/18 03:43:19;;;;;;;;;;;;;;;4.56;100.00;102515.81;5019559;28;19924;-73
2022/01/18 03:46:05;;;;;;;;;;;;;;;4.58;100.00;102521.91;5005348;28;20356;-74
2022/01/18 03:48:51;;;;;;;;;;;;;;;4.66;100.00;102522.50;5019299;28;20338;-73
2022/01/18 03:51:35;;;;;;;;;;;;;;;4.73;100.00;102524.00;5034130;28;19928;-73
2022/01/18 03:54:23;;;;;;;;;;;;;;;4.75;100.00;102520.38;5018848;28;19967;-73
2022/01/18 03:57:06;;;;;;;;;;;;;;;4.63;100.00;102522.59;5019277;28;20015;-73
2022/01/18 03:59:50;;;;;;;;;;;;;;;4.70;100.00;102538.16;5019007;28;20008;-73
2022/01/18 04:02:34;;;;;;;;;;;;;;;4.68;100.00;102536.53;5018925;28;19979;-73
2022/01/18 04:05:18;;;;;;;;;;;;;;;4.68;100.00;102537.38;5019126;28;20078;-73
2022/01/18 04:08:02;;;;;;;;;;;;;;;4.71;100.00;102541.69;5033951;28;20293;-73
2022/01/18 04:10:46;;;;;;;;;;;;;;;4.70;100.00;102540.81;5018806;28;19924;-73
2022/01/18 04:13:30;;;;;;;;;;;;;;;4.69;100.00;102536.44;5018495;28;20409;-74
2022/01/18 04:16:15;;;;;;;;;;;;;;;4.67;100.00;102540.09;5004859;28;20233;-74
2022/01/18 04:19:22;;;;;;;;;;;;;;;4.76;100.00;102547.69;5004933;28;20016;-74
2022/01/18 04:31:03;;;;;;;;;;;;;;;4.78;100.00;102548.50;4992866;28;20293;-68
2022/01/18 04:33:47;;;;;;;;;;;;;;;4.72;100.00;102549.56;4979296;28;19924;-70
2022/01/18 04:36:31;;;;;;;;;;;;;;;4.76;100.00;102552.97;5036778;22;19988;-73
2022/01/18 04:39:15;;;;;;;;;;;;;;;4.68;100.00;102542.66;5013559;28;19929;-73
2022/01/18 04:42:00;;;;;;;;;;;;;;;4.67;100.00;102535.66;5012475;28;20372;-72
2022/01/18 04:50:50;;;;;;;;;;;;;;;4.62;100.00;102547.28;5013509;28;20376;-73
2022/01/18 04:53:35;;;;;;;;;;;;;;;4.64;100.00;102548.09;4998795;28;19925;-73
2022/01/18 04:56:28;;;;;;;;;;;;;;;4.68;100.00;102547.09;5013310;28;19967;-73
2022/01/18 04:59:12;;;;;;;;;;;;;;;4.52;100.00;102545.88;5012350;28;19976;-71
2022/01/18 05:01:56;;;;;;;;;;;;;;;4.63;100.00;102554.28;5012509;28;19975;-72
2022/01/18 05:04:42;;;;;;;;;;;;;;;4.52;100.00;102557.31;5013150;28;19967;-73
2022/01/18 05:07:26;;;;;;;;;;;;;;;4.61;100.00;102562.28;5013371;28;19929;-70
2022/01/18 05:10:10;;;;;;;;;;;;;;;4.63;100.00;102556.94;5013130;28;19928;-73
2022/01/18 05:12:56;;;;;;;;;;;;;;;4.70;100.00;102556.66;5013494;28;19925;-73
2022/01/18 05:15:50;;;;;;;;;;;;;;;4.75;100.00;102556.50;5012331;28;20384;-73
2022/01/18 05:21:25;;;;;;;;;;;;;;;4.79;100.00;102551.06;5012604;28;19924;-73
2022/01/18 05:24:09;;;;;;;;;;;;;;;4.78;100.00;102559.06;5013585;28;20104;-73
2022/01/18 05:26:53;;;;;;;;;;;;;;;4.82;100.00;102555.38;5012026;28;19928;-72
2022/01/18 05:29:37;;;;;;;;;;;;;;;4.84;100.00;102558.84;5013235;28;20380;-73
2022/01/18 05:32:21;;;;;;;;;;;;;;;4.86;100.00;102560.53;5013515;28;20383;-73
2022/01/18 05:35:05;;;;;;;;;;;;;;;4.84;100.00;102565.00;5012878;28;19928;-73
2022/01/18 05:37:49;;;;;;;;;;;;;;;4.80;100.00;102559.88;5016605;28;19925;-73
2022/01/18 05:40:34;;;;;;;;;;;;;;;4.61;100.00;102566.69;5015630;28;19963;-73
2022/01/18 05:43:18;;;;;;;;;;;;;;;4.38;100.00;102558.69;5016784;28;19925;-71
2022/01/18 05:46:02;;;;;;;;;;;;;;;4.36;100.00;102557.88;5015954;28;20297;-73
2022/01/18 05:48:46;;;;;;;;;;;;;;;4.33;100.00;102564.09;5015457;28;20024;-73
2022/01/18 05:51:30;;;;;;;;;;;;;;;4.34;100.00;102563.19;5015697;28;20264;-73
2022/01/18 05:54:14;;;;;;;;;;;;;;;4.39;100.00;102576.25;5015844;28;19923;-73
2022/01/18 05:56:58;;;;;;;;;;;;;;;4.40;100.00;102568.28;5001832;28;19924;-73
2022/01/18 05:59:45;;;;;;;;;;;;;;;4.42;100.00;102573.50;5016487;28;19925;-74
2022/01/18 06:02:41;;;;;;;;;;;;;;;4.41;100.00;102574.41;5016417;28;19925;-73
2022/01/18 06:08:28;;;;;;;;;;;;;;;4.42;100.00;102577.00;5016321;28;19928;-74
2022/01/18 06:11:12;;;;;;;;;;;;;;;4.41;100.00;102587.63;5016353;28;19968;-73
2022/01/18 06:13:56;;;;;;;;;;;;;;;4.42;100.00;102581.41;5015235;28;19928;-73
2022/01/18 06:16:40;;;;;;;;;;;;;;;4.44;100.00;102576.94;5015907;28;20284;-73
2022/01/18 06:19:23;;;;;;;;;;;;;;;4.42;100.00;102578.78;5015152;28;19925;-73
2022/01/18 06:22:07;;;;;;;;;;;;;;;4.46;100.00;102583.06;5015888;28;20284;-71
2022/01/18 06:24:51;;;;;;;;;;;;;;;4.49;100.00;102577.66;5014938;28;19944;-73
2022/01/18 06:27:35;;;;;;;;;;;;;;;4.49;100.00;102582.94;5014910;28;19940;-73
2022/01/18 06:30:19;;;;;;;;;;;;;;;4.35;100.00;102574.63;5014894;28;20341;-74
2022/01/18 06:33:03;;;;;;;;;;;;;;;4.38;100.00;102585.94;5014654;28;19992;-73
2022/01/18 06:35:47;;;;;;;;;;;;;;;4.40;100.00;102583.25;5014679;28;20371;-74
2022/01/18 06:38:31;;;;;;;;;;;;;;;4.40;100.00;102589.41;5015636;28;19990;-73
2022/01/18 06:41:15;;;;;;;;;;;;;;;4.40;100.00;102592.06;5015052;28;19924;-73
2022/01/18 06:43:59;;;;;;;;;;;;;;;4.36;100.00;102590.41;5000660;28;19925;-73
2022/01/18 06:46:43;;;;;;;;;;;;;;;4.29;100.00;102595.94;5014423;28;20351;-73
2022/01/18 06:49:27;;;;;;;;;;;;;;;4.36;100.00;102597.47;5000199;28;19924;-73
2022/01/18 06:52:10;;;;;;;;;;;;;;;4.38;100.00;102603.56;5015545;28;19924;-73
2022/01/18 06:54:54;;;;;;;;;;;;;;;4.23;100.00;102601.41;5014642;28;19925;-73
2022/01/18 06:57:38;;;;;;;;;;;;;;;4.19;100.00;102607.69;5015337;28;19926;-73
2022/01/18 07:00:22;;;;;;;;;;;;;;;4.19;100.00;102599.78;5014323;28;20336;-72
2022/01/18 07:03:06;;;;;;;;;;;;;;;4.23;100.00;102607.56;5015339;28;20383;-73
2022/01/18 07:05:50;;;;;;;;;;;;;;;4.12;100.00;102606.16;5014242;28;19925;-73
2022/01/18 07:08:34;;;;;;;;;;;;;;;4.11;100.00;102614.97;5013954;28;19945;-73
2022/01/18 07:11:19;;;;;;;;;;;;;;;4.07;100.00;102621.28;5000778;28;20395;-72
2022/01/18 07:14:03;;;;;;;;;;;;;;;4.14;100.00;102628.97;5014194;28;19924;-73
2022/01/18 07:16:47;;;;;;;;;;;;;;;4.22;100.00;102628.72;5013770;28;19925;-73
2022/01/18 07:19:32;;;;;;;;;;;;;;;4.26;100.00;102628.56;5013972;28;19943;-73
2022/01/18 07:22:16;;;;;;;;;;;;;;;4.27;100.00;102629.47;5014945;28;19999;-73
2022/01/18 07:25:02;;;;;;;;;;;;;;;4.37;100.00;102631.75;5015166;28;19960;-72
2022/01/18 07:27:46;;;;;;;;;;;;;;;4.46;100.00;102631.47;5013672;28;19971;-73
2022/01/18 07:30:29;;;;;;;;;;;;;;;4.42;100.00;102640.41;5013577;28;20004;-73
2022/01/18 07:33:14;;;;;;;;;;;;;;;4.44;100.00;102635.94;5013777;28;20291;-72
2022/01/18 07:35:58;;;;;;;;;;;;;;;4.53;100.00;102637.41;5013248;28;20048;-73
2022/01/18 07:38:42;;;;;;;;;;;;;;;4.57;100.00;102645.19;5013624;28;19979;-72
2022/01/18 07:41:26;;;;;;;;;;;;;;;4.58;100.00;102648.69;5013603;28;19979;-73
2022/01/18 07:44:10;;;;;;;;;;;;;;;4.65;100.00;102643.16;5013406;28;19968;-73
2022/01/18 07:46:54;;;;;;;;;;;;;;;4.69;100.00;102655.34;5014319;28;20052;-72
2022/01/18 07:49:38;;;;;;;;;;;;;;;4.65;100.00;102659.00;5013510;28;20051;-73
2022/01/18 07:52:21;;;;;;;;;;;;;;;4.69;100.00;102649.22;5014221;28;19924;-73
2022/01/18 07:55:06;;;;;;;;;;;;;;;4.60;100.00;102649.50;5013173;28;19952;-72
2022/01/18 07:57:50;;;;;;;;;;;;;;;4.69;100.00;102655.34;5013499;28;20017;-73
2022/01/18 08:00:34;;;;;;;;;;;;;;;4.79;100.00;102658.56;5014237;28;19939;-72
2022/01/18 08:03:17;;;;;;;;;;;;;;;4.73;100.00;102657.00;5014287;28;20348;-72
2022/01/18 08:06:01;;;;;;;;;;;;;;;4.69;100.00;102659.78;4999203;28;19924;-73
2022/01/18 08:08:46;;;;;;;;;;;;;;;4.82;100.00;102655.81;5012864;28;19928;-72
2022/01/18 08:11:30;;;;;;;;;;;;;;;4.80;100.00;102657.66;5013879;28;19924;-73
2022/01/18 08:14:15;;;;;;;;;;;;;;;4.89;100.00;102646.78;5013000;28;19925;-73
2022/01/18 08:17:05;;;;;;;;;;;;;;;4.97;100.00;102651.75;5012805;28;20028;-73
2022/01/18 08:19:49;;;;;;;;;;;;;;;5.07;100.00;102649.66;5013955;28;20394;-72
2022/01/18 08:22:33;;;;;;;;;;;;;;;5.16;100.00;102649.34;5013915;28;20022;-73
2022/01/18 08:25:17;;;;;;;;;;;;;;;5.22;100.00;102647.34;5013594;28;19967;-72
2022/01/18 08:28:02;;;;;;;;;;;;;;;5.34;100.00;102651.38;5012372;28;20438;-73
2022/01/18 08:30:47;;;;;;;;;;;;;;;5.40;100.00;102646.72;5013179;28;20390;-72
2022/01/18 08:33:32;;;;;;;;;;;;;;;5.48;100.00;102655.25;5014034;28;20011;-72
2022/01/18 08:36:17;;;;;;;;;;;;;;;5.55;100.00;102648.81;5013309;28;19925;-70
2022/01/18 08:39:01;;;;;;;;;;;;;;;5.78;100.00;102647.97;5012862;28;20024;-73
2022/01/18 08:41:45;;;;;;;;;;;;;;;5.87;100.00;102643.22;5020358;28;20370;-72
2022/01/18 08:44:30;;;;;;;;;;;;;;;5.99;100.00;102640.13;5018634;28;19971;-72
2022/01/18 08:47:14;;;;;;;;;;;;;;;6.08;100.00;102645.09;5018635;28;19933;-73
2022/01/18 08:49:58;;;;;;;;;;;;;;;6.17;100.00;102642.06;5015949;28;20387;-73
2022/01/18 08:52:42;;;;;;;;;;;;;;;6.24;100.00;102643.56;5012586;28;20422;-72
2022/01/18 08:55:26;;;;;;;;;;;;;;;6.21;100.00;102658.69;5012325;28;19943;-73
2022/01/18 08:58:09;;;;;;;;;;;;;;;6.42;100.00;102641.97;5012332;28;19991;-72
2022/01/18 09:00:53;;;;;;;;;;;;;;;6.42;100.00;102642.84;5013426;28;19925;-73
2022/01/18 09:03:37;;;;;;;;;;;;;;;6.58;100.00;102638.63;5012881;28;19994;-73
2022/01/18 09:06:23;;;;;;;;;;;;;;;6.71;100.00;102639.88;5012283;28;19925;-73
2022/01/18 09:09:09;;;;;;;;;;;;;;;6.77;100.00;102644.91;5013538;28;19928;-73
2022/01/18 09:11:53;;;;;;;;;;;;;;;6.94;100.00;102641.56;5015994;28;19975;-73
2022/01/18 09:14:37;;;;;;;;;;;;;;;7.00;100.00;102650.16;5016475;28;19979;-72
2022/01/18 09:17:21;;;;;;;;;;;;;;;7.12;100.00;102644.31;5016234;28;19924;-73
2022/01/18 09:20:06;;;;;;;;;;;;;;;7.27;100.00;102648.94;5016280;28;20415;-72
2022/01/18 09:22:52;;;;;;;;;;;;;;;7.42;100.00;102656.25;5016015;28;19925;-73
2022/01/18 09:25:36;;;;;;;;;;;;;;;7.57;100.00;102660.03;5002874;28;20244;-72
2022/01/18 09:28:20;;;;;;;;;;;;;;;7.67;100.00;102655.13;5017111;28;20375;-73
2022/01/18 09:31:04;;;;;;;;;;;;;;;7.77;100.00;102652.91;5017081;28;19923;-73
2022/01/18 09:33:48;;;;;;;;;;;;;;;7.89;100.00;102652.34;5016999;28;19974;-73
2022/01/18 09:36:32;;;;;;;;;;;;;;;8.21;100.00;102659.72;5015597;28;20329;-73
2022/01/18 09:39:16;;;;;;;;;;;;;;;8.30;100.00;102648.66;5015982;28;20031;-72
2022/01/18 09:42:02;;;;;;;;;;;;;;;8.39;100.00;102654.41;5015998;28;19941;-73
2022/01/18 09:44:47;;;;;;;;;;;;;;;8.31;100.00;102655.69;5015852;28;20019;-71
2022/01/18 09:47:31;;;;;;;;;;;;;;;8.57;100.00;102660.63;5015323;28;19975;-66
2022/01/18 09:50:16;;;;;;;;;;;;;;;8.71;100.00;102661.69;5015638;28;19963;-72
2022/01/18 09:53:00;;;;;;;;;;;;;;;8.97;100.00;102668.38;5015601;28;19952;-73
2022/01/18 09:55:44;;;;;;;;;;;;;;;9.15;100.00;102667.47;5016371;28;20395;-73
2022/01/18 09:58:29;;;;;;;;;;;;;;;9.25;100.00;102671.34;5001961;28;19925;-71
2022/01/18 10:01:13;;;;;;;;;;;;;;;9.61;100.00;102666.81;5015274;28;20032;-71
2022/01/18 10:04:16;;;;;;;;;;;;;;;9.73;100.00;102653.72;5016385;28;19924;-71
2022/01/18 10:07:00;;;;;;;;;;;;;;;9.94;100.00;102665.00;5016187;28;19992;-71
2022/01/18 10:09:44;;;;;;;;;;;;;;;10.14;100.00;102656.81;5016298;28;19925;-72
2022/01/18 10:12:28;;;;;;;;;;;;;;;-139.48;100.00;61774.03;5015013;28;19972;-71
2022/01/18 10:15:11;;;;;;;;;;;;;;;-139.48;100.00;102662.38;5016277;28;19925;-70
2022/01/18 10:18:03;;;;;;;;;;;;;;;11.36;94.92;102654.94;5015262;28;19944;-71
2022/01/18 10:20:47;;;;;;;;;;;;;;;11.60;90.11;102649.97;5015404;28;20388;-72
2022/01/18 10:23:31;;;;;;;;;;;;;;;11.72;85.72;102651.91;5013927;28;19924;-73
2022/01/18 10:26:20;;;;;;;;;;;;;;;11.56;83.79;102657.28;5016033;28;19927;-73
2022/01/18 10:29:04;;;;;;;;;;;;;;;11.50;87.56;102651.47;5014769;28;19927;-72
2022/01/18 10:37:25;;;;;;;;;;;;;;;11.10;89.12;102647.66;5015779;28;20004;-73
2022/01/18 10:40:14;;;;;;;;;;;;;;;10.95;89.77;102648.53;5000981;28;19929;-72
2022/01/18 10:43:03;;;;;;;;;;;;;;;10.84;90.61;102653.63;5016047;28;19979;-72
2022/01/18 10:45:47;;;;;;;;;;;;;;;10.65;89.55;102644.97;5015364;28;19985;-72
2022/01/18 10:48:31;;;;;;;;;;;;;;;10.77;89.97;102641.59;5014519;28;19928;-72
2022/01/18 10:51:28;;;;;;;;;;;;;;;10.96;90.50;102639.56;5014291;28;19924;-72
2022/01/18 10:54:12;;;;;;;;;;;;;;;10.76;92.91;102634.53;5015634;28;20031;-72
2022/01/18 10:57:00;;;;;;;;;;;;;;;10.82;91.44;102628.84;5014121;28;19998;-71
2022/01/18 10:59:44;;;;;;;;;;;;;;;10.81;92.45;102629.81;5014415;28;20391;-71
2022/01/18 11:02:31;;;;;;;;;;;;;;;10.90;92.67;102629.28;5014235;28;19924;-71
2022/01/18 11:05:16;;;;;;;;;;;;;;;11.27;89.34;102620.78;5000272;28;20016;-71
2022/01/18 11:08:02;;;;;;;;;;;;;;;11.44;87.12;102607.28;5013913;28;19980;-71
2022/01/18 11:10:47;;;;;;;;;;;;;;;11.31;86.18;102600.97;5015028;28;19928;-72
2022/01/18 11:13:34;;;;;;;;;;;;;;;11.53;86.73;102604.06;5014899;28;20055;-72
2022/01/18 11:16:25;;;;;;;;;;;;;;;11.68;83.08;102595.09;5014390;28;19928;-71
2022/01/18 11:19:27;;;;;;;;;;;;;;;12.01;82.26;102587.66;5013891;28;20489;-72
2022/01/18 11:22:10;;;;;;;;;;;;;;;12.92;73.61;102602.06;5013879;28;20241;-72
2022/01/18 11:24:57;;;;;;;;;;;;;;;12.92;73.61;102602.06;5013873;28;20292;-72
2022/01/18 11:27:43;;;;;;;;;;;;;;;12.92;73.61;102602.06;5013655;28;19932;-72
2022/01/18 11:30:31;;;;;;;;;;;;;;;16.47;53.27;102583.06;5014598;28;19928;-72
2022/01/18 11:33:16;;;;;;;;;;;;;;;17.74;49.09;102573.81;5013695;28;19939;-72
2022/01/18 11:36:20;;;;;;;;;;;;;;;17.35;48.95;102580.88;5013510;28;19925;-72
2022/01/18 11:39:05;;;;;;;;;;;;;;;16.80;49.83;102580.25;4999678;28;20443;-72
2022/01/18 11:41:49;;;;;;;;;;;;;;;14.93;54.17;102582.06;5014643;28;19975;-70
2022/01/18 11:44:33;;;;;;;;;;;;;;;14.34;57.54;102577.63;5014640;28;19960;-72
2022/01/18 11:47:26;;;;;;;;;;;;;;;13.66;63.07;102579.03;5014358;28;19944;-71
2022/01/18 11:50:16;;;;;;;;;;;;;;;13.40;65.61;102585.34;5013575;28;19940;-71
2022/01/18 11:53:26;;;;;;;;;;;;;;;12.61;69.87;102580.97;5014690;28;19936;-71
2022/01/18 11:56:30;;;;;;;;;;;;;;;12.07;75.19;102576.56;5014245;28;20072;-71
2022/01/18 11:59:18;;;;;;;;;;;;;;;11.42;81.84;102568.25;5013311;28;20055;-71
2022/01/18 12:02:03;;;;;;;;;;;;;;;10.95;82.83;102563.13;5013340;28;20027;-71
2022/01/18 12:04:53;;;;;;;;;;;;;;;10.55;89.02;102566.41;5013157;28;20080;-71
2022/01/18 12:07:37;;;;;;;;;;;;;;;10.18;91.94;102562.44;5013830;28;20301;-71
2022/01/18 12:10:27;;;;;;;;;;;;;;;10.20;92.27;102571.19;5014371;28;20280;-71
2022/01/18 12:13:32;;;;;;;;;;;;;;;10.32;86.20;102558.88;5014406;28;20015;-72
2022/01/18 12:16:17;;;;;;;;;;;;;;;10.23;85.48;102555.03;5013986;28;19975;-71
2022/01/18 12:19:04;;;;;;;;;;;;;;;10.02;88.57;102550.88;4998930;28;20443;-71
2022/01/18 12:21:48;;;;;;;;;;;;;;;9.82;85.90;102554.66;5013181;28;19924;-67
2022/01/18 12:24:32;;;;;;;;;;;;;;;9.82;87.54;102543.13;5013913;28;19964;-71
2022/01/18 12:27:26;;;;;;;;;;;;;;;9.92;86.81;102544.34;5015164;28;20369;-72
2022/01/18 12:30:26;;;;;;;;;;;;;;;9.93;86.13;102551.38;5012619;28;19967;-71
2022/01/18 12:33:16;;;;;;;;;;;;;;;9.99;88.27;102549.22;5013593;28;19924;-72
2022/01/18 12:36:19;;;;;;;;;;;;;;;10.07;88.49;102549.69;5012817;28;20229;-71
2022/01/18 12:39:03;;;;;;;;;;;;;;;10.09;85.49;102549.63;5013568;28;19924;-72
2022/01/18 12:41:52;;;;;;;;;;;;;;;10.04;82.26;102543.66;5012684;28;19923;-71
2022/01/18 12:44:42;;;;;;;;;;;;;;;9.83;85.68;102542.16;5012452;28;19987;-71
2022/01/18 12:47:26;;;;;;;;;;;;;;;9.80;87.50;102545.00;5011894;28;20289;-71
2022/01/18 12:50:10;;;;;;;;;;;;;;;9.65;91.17;102551.16;5012327;28;19924;-71
2022/01/18 12:52:57;;;;;;;;;;;;;;;9.67;91.07;102538.66;5013351;28;19964;-71
2022/01/18 12:55:45;;;;;;;;;;;;;;;9.71;85.87;102538.41;5013365;28;19928;-70
2022/01/18 12:58:38;;;;;;;;;;;;;;;9.38;90.83;102542.03;5013827;28;19968;-72
2022/01/18 13:01:27;;;;;;;;;;;;;;;9.40;92.63;102540.97;5013524;28;20064;-70
2022/01/18 13:04:10;;;;;;;;;;;;;;;9.32;94.06;102531.69;5013250;28;19976;-71
2022/01/18 13:06:56;;;;;;;;;;;;;;;9.00;97.80;102549.38;4998188;28;20004;-71
2022/01/18 13:09:55;;;;;;;;;;;;;;;9.03;98.65;102535.03;5012351;28;19925;-72
2022/01/18 13:12:43;;;;;;;;;;;;;;;9.06;92.68;102533.06;5013179;28;19924;-70
2022/01/18 13:15:46;;;;;;;;;;;;;;;8.95;90.23;102529.25;5012403;28;20068;-71
2022/01/18 13:27:37;;;;;;;;;;;;;;;8.54;90.73;102525.19;5013321;28;20404;-70
2022/01/18 13:30:24;;;;;;;;;;;;;;;8.65;84.80;102541.47;5012146;28;19967;-71
2022/01/18 13:33:11;;;;;;;;;;;;;;;8.59;82.09;102524.03;4998904;28;19972;-71
2022/01/18 13:36:02;;;;;;;;;;;;;;;8.62;81.01;102533.63;5012942;28;20022;-71
2022/01/18 13:38:46;;;;;;;;;;;;;;;8.73;77.76;102529.50;5012066;28;19932;-71
2022/01/18 13:41:31;;;;;;;;;;;;;;;8.64;77.29;102529.97;5012051;28;19972;-71
2022/01/18 13:44:14;;;;;;;;;;;;;;;8.71;78.68;102534.03;5013106;28;19925;-71
2022/01/18 13:47:15;;;;;;;;;;;;;;;8.70;79.16;102531.44;5011662;28;19924;-71
2022/01/18 13:49:59;;;;;;;;;;;;;;;8.48;82.29;102526.38;5011847;28;19925;-71
2022/01/18 13:52:43;;;;;;;;;;;;;;;8.47;86.02;102529.09;5012810;28;20448;-72
2022/01/18 13:55:28;;;;;;;;;;;;;;;8.48;86.97;102525.50;5013207;28;20017;-72
2022/01/18 13:58:11;;;;;;;;;;;;;;;8.40;88.64;102522.34;5015391;28;20297;-72
2022/01/18 14:01:14;;;;;;;;;;;;;;;8.38;89.32;102521.56;5016532;28;19924;-71
2022/01/18 14:04:00;;;;;;;;;;;;;;;8.35;89.59;102519.91;5016183;28;19940;-71
2022/01/18 14:06:44;;;;;;;;;;;;;;;8.32;89.53;102521.84;5015347;28;19971;-71
2022/01/18 14:09:28;;;;;;;;;;;;;;;8.40;88.37;102522.34;5001508;28;19975;-71
2022/01/18 14:12:17;;;;;;;;;;;;;;;8.29;89.26;102519.38;5016348;28;19971;-71
2022/01/18 14:15:00;;;;;;;;;;;;;;;8.29;85.60;102530.88;5015246;28;20368;-72
2022/01/18 14:17:48;;;;;;;;;;;;;;;8.26;87.88;102528.34;5016250;28;19928;-71
2022/01/18 14:20:32;;;;;;;;;;;;;;;8.08;89.02;102520.38;5015241;28;19943;-72
2022/01/18 14:23:20;;;;;;;;;;;;;;;8.11;87.92;102523.75;5014931;28;19929;-71
2022/01/18 14:26:19;;;;;;;;;;;;;;;8.09;88.13;102522.97;5014993;28;20304;-72
2022/01/18 14:29:04;;;;;;;;;;;;;;;8.18;87.51;102527.88;5015027;28;19968;-72
2022/01/18 14:32:04;;;;;;;;;;;;;;;8.25;86.05;102515.16;5014665;28;19924;-71
2022/01/18 14:34:49;;;;;;;;;;;;;;;8.08;87.34;102518.59;5016163;28;20012;-71
2022/01/18 14:37:38;;;;;;;;;;;;;;;8.05;88.20;102513.41;5000669;28;19984;-72
2022/01/18 14:40:22;;;;;;;;;;;;;;;7.96;90.19;102524.47;5015705;28;20269;-70
2022/01/18 14:43:14;;;;;;;;;;;;;;;8.05;89.27;102509.91;5015499;28;20292;-72
2022/01/18 14:48:41;;;;;;;;;;;;;;;8.03;91.22;102512.63;5015545;28;19965;-71
2022/01/18 14:51:27;;;;;;;;;;;;;;;8.10;90.57;102507.88;5015597;28;19964;-72
2022/01/18 14:54:11;;;;;;;;;;;;;;;8.05;90.90;102508.09;5015250;28;19976;-72
2022/01/18 14:56:55;;;;;;;;;;;;;;;7.94;91.50;102506.91;5000293;28;19924;-70
2022/01/18 14:59:39;;;;;;;;;;;;;;;7.90;93.18;102492.03;5015484;28;19974;-71
2022/01/18 15:02:24;;;;;;;;;;;;;;;7.86;93.46;102499.28;5014845;28;19985;-71
2022/01/18 15:05:09;;;;;;;;;;;;;;;7.84;94.71;102492.34;5014413;28;20281;-71
2022/01/18 15:07:53;;;;;;;;;;;;;;;7.77;93.15;102485.59;5000350;28;20083;-71
2022/01/18 15:10:36;;;;;;;;;;;;;;;7.80;92.29;102478.34;5014934;28;19967;-71
2022/01/18 15:13:20;;;;;;;;;;;;;;;7.84;91.43;102477.25;5015347;28;19996;-71
2022/01/18 15:16:04;;;;;;;;;;;;;;;7.74;89.13;102472.47;5015003;28;19944;-71
2022/01/18 15:18:48;;;;;;;;;;;;;;;7.70;86.61;102468.22;5015045;28;19972;-71
2022/01/18 15:21:32;;;;;;;;;;;;;;;7.78;86.84;102471.38;5013788;28;19925;-71
2022/01/18 15:24:16;;;;;;;;;;;;;;;7.82;86.59;102459.72;5014123;28;19929;-71
2022/01/18 15:27:00;;;;;;;;;;;;;;;7.83;86.44;102469.38;5014677;28;19976;-71
2022/01/18 15:29:46;;;;;;;;;;;;;;;7.75;89.62;102466.25;5014812;28;19925;-71
2022/01/18 15:32:29;;;;;;;;;;;;;;;7.62;90.21;102473.06;5014013;28;20279;-71